Time;durP1;ratioP1;P1;durP2;ratioP2;P2;SDS_P1;SDS_P2;PMS_P1;PMS_P2;Temp;Humidity;BMP_temperature;BMP_pressure;BME280_temperature;BME280_humidity;BME280_pressure;Samples;Min_cycle;Max_cycle;Signal;HPM_P1;HPM_P2
2024/01/23 00:02:56;;;;;;;60.63;26.00;;;;;;;0.83;62.91;100529.75;7684327;32;39069;-79
2024/01/23 00:07:13;;;;;;;64.97;25.80;;;;;;;0.69;63.40;100509.97;7684325;32;39948;-80
2024/01/23 00:11:29;;;;;;;70.12;26.73;;;;;;;0.31;64.35;100508.31;7684022;32;38015;-80
2024/01/23 00:15:45;;;;;;;70.25;26.35;;;;;;;0.07;65.02;100506.75;7683280;32;37169;-80
2024/01/23 00:20:04;;;;;;;68.62;26.62;;;;;;;0.77;62.98;100485.72;7683805;32;39340;-80
2024/01/23 00:24:20;;;;;;;63.47;23.92;;;;;;;0.70;63.46;100469.53;7683877;32;39607;-80
2024/01/23 00:28:37;;;;;;;61.45;24.08;;;;;;;0.33;64.23;100462.53;7683719;32;38004;-79
2024/01/23 00:32:53;;;;;;;75.53;27.02;;;;;;;0.45;64.64;100454.81;7683793;32;37296;-80
2024/01/23 00:37:09;;;;;;;72.47;25.75;;;;;;;0.59;64.13;100428.94;7691994;32;39580;-80
2024/01/23 00:41:25;;;;;;;57.35;25.02;;;;;;;0.55;63.96;100423.97;7710057;32;39888;-80
2024/01/23 00:45:42;;;;;;;76.57;26.67;;;;;;;0.38;64.70;100465.47;7710023;32;37728;-80
2024/01/23 00:49:59;;;;;;;67.87;27.35;;;;;;;0.39;64.70;100482.41;7710069;32;37217;-80
2024/01/23 00:54:16;;;;;;;54.75;23.67;;;;;;;0.46;64.40;100489.50;7709835;32;40180;-80
2024/01/23 00:58:32;;;;;;;78.70;27.08;;;;;;;0.36;64.72;100516.62;7709419;32;40662;-80
2024/01/23 01:02:48;;;;;;;70.03;24.65;;;;;;;0.77;63.53;100501.81;7709385;32;38006;-80
2024/01/23 01:07:05;;;;;;;61.03;24.60;;;;;;;0.70;63.24;100504.41;7709500;32;37355;-80
2024/01/23 01:11:21;;;;;;;67.22;26.10;;;;;;;0.74;63.32;100519.16;7709059;32;39401;-80
2024/01/23 01:15:38;;;;;;;70.53;27.02;;;;;;;0.81;62.97;100513.84;7709479;32;40916;-80
2024/01/23 01:19:55;;;;;;;69.62;25.80;;;;;;;0.90;62.82;100517.25;7709100;32;38518;-80
2024/01/23 01:24:11;;;;;;;61.33;27.80;;;;;;;0.77;62.89;100525.97;7700327;32;37215;-80
2024/01/23 01:28:28;;;;;;;69.45;26.52;;;;;;;0.93;62.61;100517.69;7686029;32;40122;-80
2024/01/23 01:32:44;;;;;;;71.50;26.37;;;;;;;1.22;61.08;100504.31;7686024;32;39895;-80
2024/01/23 01:37:00;;;;;;;60.38;26.23;;;;;;;1.03;61.02;100503.94;7686004;32;37686;-79
2024/01/23 01:41:17;;;;;;;63.60;24.87;;;;;;;1.21;60.80;100470.41;7685920;32;38007;-79
2024/01/23 01:45:33;;;;;;;72.40;27.33;;;;;;;1.36;60.01;100457.72;7686127;32;40201;-80
2024/01/23 01:49:50;;;;;;;59.95;24.20;;;;;;;1.31;60.26;100454.78;7685888;32;40671;-80
2024/01/23 01:54:07;;;;;;;67.60;27.35;;;;;;;0.86;61.36;100440.78;7685789;32;38552;-80
2024/01/23 01:58:24;;;;;;;65.60;27.08;;;;;;;1.34;60.22;100422.19;7680259;32;175573;-80
2024/01/23 02:02:43;;;;;;;63.22;25.60;;;;;;;0.73;62.14;100425.38;7685682;32;40225;-80
2024/01/23 02:06:59;;;;;;;67.78;27.80;;;;;;;1.35;60.26;100410.41;7685784;32;39868;-80
2024/01/23 02:11:16;;;;;;;60.12;25.30;;;;;;;0.98;61.49;100407.00;7685690;32;38036;-80
2024/01/23 02:15:32;;;;;;;67.62;26.20;;;;;;;0.97;61.92;100416.13;7690418;32;37952;-80
2024/01/23 02:19:50;;;;;;;58.78;24.75;;;;;;;1.04;61.69;100440.34;7712430;32;40217;-80
2024/01/23 02:24:07;;;;;;;58.22;24.27;;;;;;;0.75;62.43;100434.91;7712160;32;38939;-80
2024/01/23 02:28:24;;;;;;;67.85;25.40;;;;;;;1.25;60.99;100447.53;7712109;32;38127;-80
2024/01/23 02:32:44;;;;;;;65.07;25.25;;;;;;;1.12;61.54;100467.03;7712306;32;38048;-80
2024/01/23 02:37:01;;;;;;;66.57;25.92;;;;;;;1.11;61.16;100468.91;7711650;32;40304;-81
2024/01/23 02:41:17;;;;;;;65.70;27.50;;;;;;;1.11;61.12;100476.12;7711914;32;39701;-80
2024/01/23 02:45:34;;;;;;;54.17;24.15;;;;;;;1.21;61.24;100486.53;7693116;32;38563;-81
2024/01/23 02:49:51;;;;;;;59.15;24.15;;;;;;;0.87;62.05;100490.78;7684199;32;37748;-80
2024/01/23 02:54:07;;;;;;;65.60;26.00;;;;;;;1.35;60.67;100482.13;7684004;32;40077;-80
2024/01/23 02:58:24;;;;;;;68.30;28.00;;;;;;;1.21;61.44;100487.38;7684920;32;40036;-79
2024/01/23 03:02:40;;;;;;;64.07;26.15;;;;;;;1.10;61.40;100486.06;7683817;32;37673;-80
2024/01/23 03:06:57;;;;;;;65.43;24.83;;;;;;;1.33;60.83;100489.53;7683915;32;37176;-80
2024/01/23 03:11:13;;;;;;;60.58;25.75;;;;;;;1.13;61.45;100491.03;7685193;32;39313;-80
2024/01/23 03:15:29;;;;;;;62.28;25.35;;;;;;;1.46;60.66;100474.34;7708204;32;40854;-80
2024/01/23 03:19:46;;;;;;;66.22;26.05;;;;;;;1.36;60.98;100479.22;7711422;32;38717;-80
2024/01/23 03:24:03;;;;;;;70.97;25.33;;;;;;;1.27;61.58;100486.59;7711312;32;37983;-79
2024/01/23 03:28:19;;;;;;;72.32;27.15;;;;;;;1.31;61.16;100495.94;7711522;32;39473;-80
2024/01/23 03:32:35;;;;;;;61.60;25.35;;;;;;;1.47;61.05;100476.03;7711321;32;40810;-80
2024/01/23 03:36:52;;;;;;;59.13;25.20;;;;;;;1.49;61.13;100473.12;7711239;32;38750;-80
2024/01/23 03:41:08;;;;;;;67.05;25.98;;;;;;;1.27;61.74;100458.91;7711196;32;37233;-80
2024/01/23 03:45:24;;;;;;;61.22;26.33;;;;;;;1.38;61.41;100455.72;7711283;32;39745;-80
2024/01/23 03:49:41;;;;;;;63.30;25.10;;;;;;;1.02;62.61;100471.91;7710077;32;40892;-80
2024/01/23 03:53:57;;;;;;;56.83;26.17;;;;;;;1.38;61.66;100477.19;7710966;32;38187;-80
2024/01/23 03:58:13;;;;;;;56.95;24.50;;;;;;;1.54;61.21;100454.56;7710841;32;37463;-79
2024/01/23 04:02:31;;;;;;;72.57;24.98;;;;;;;1.57;60.98;100464.94;7711115;32;39453;-80
2024/01/23 04:06:47;;;;;;;57.03;24.60;;;;;;;1.35;61.40;100456.09;7709600;32;40654;-80
2024/01/23 04:11:04;;;;;;;60.85;24.83;;;;;;;1.49;61.08;100457.00;7709128;32;37990;-79
2024/01/23 04:15:20;;;;;;;60.95;25.52;;;;;;;1.45;61.09;100475.38;7710853;32;37355;-80
2024/01/23 04:19:37;;;;;;;64.22;27.40;;;;;;;1.19;61.92;100477.84;7710724;32;39202;-80
2024/01/23 04:23:54;;;;;;;66.15;26.70;;;;;;;1.31;61.69;100476.28;7710564;32;40043;-80
2024/01/23 04:28:10;;;;;;;64.18;25.95;;;;;;;1.19;61.86;100488.59;7710394;32;38532;-79
2024/01/23 04:32:26;;;;;;;64.03;28.27;;;;;;;1.27;61.68;100480.41;7710378;32;37812;-79
2024/01/23 04:36:44;;;;;;;69.87;28.12;;;;;;;1.00;61.84;100490.91;7710196;32;40195;-80
2024/01/23 04:41:00;;;;;;;58.40;26.12;;;;;;;0.64;63.80;100490.94;7710179;32;39861;-79
2024/01/23 04:45:16;;;;;;;73.00;25.95;;;;;;;0.97;63.07;100493.97;7710042;32;37685;-79
2024/01/23 04:49:33;;;;;;;72.75;26.48;;;;;;;1.32;61.79;100494.09;7710383;32;36500;-80
2024/01/23 04:53:52;;;;;;;65.93;26.60;;;;;;;1.16;62.51;100489.00;7709901;32;39321;-80
2024/01/23 04:58:08;;;;;;;72.50;29.08;;;;;;;1.32;61.94;100486.03;7709633;32;39684;-80
2024/01/23 05:02:26;;;;;;;72.65;28.17;;;;;;;1.17;62.05;100493.31;7713154;32;37608;-80
2024/01/23 05:06:43;;;;;;;68.80;27.85;;;;;;;1.18;62.38;100490.44;7691297;32;37758;-79
2024/01/23 05:11:00;;;;;;;65.03;26.12;;;;;;;1.41;61.53;100471.41;7686494;32;39314;-80
2024/01/23 05:15:16;;;;;;;73.95;28.10;;;;;;;1.45;61.32;100467.31;7686305;32;39654;-80
2024/01/23 05:19:32;;;;;;;63.53;27.98;;;;;;;1.57;61.26;100488.28;7686150;32;37664;-80
2024/01/23 05:23:49;;;;;;;77.55;28.33;;;;;;;1.41;61.57;100487.53;7686183;32;38395;-80
2024/01/23 05:28:05;;;;;;;70.25;29.05;;;;;;;1.38;61.56;100492.47;7686200;32;39373;-80
2024/01/23 05:32:22;;;;;;;74.53;25.80;;;;;;;1.33;61.78;100485.00;7686067;32;40849;-80
2024/01/23 05:36:38;;;;;;;76.07;31.00;;;;;;;1.26;61.81;100490.31;7684800;32;38505;-80
2024/01/23 05:40:54;;;;;;;75.97;31.45;;;;;;;1.24;61.81;100496.91;7686628;32;37037;-79
2024/01/23 05:45:11;;;;;;;77.22;31.40;;;;;;;1.20;61.86;100509.88;7685944;32;40169;-80
2024/01/23 05:49:27;;;;;;;94.90;33.13;;;;;;;1.21;61.61;100508.03;7685835;32;39928;-80
2024/01/23 05:53:44;;;;;;;74.85;31.37;;;;;;;0.96;62.11;100527.22;7685741;32;38011;-80
2024/01/23 05:58:03;;;;;;;75.28;30.08;;;;;;;1.02;61.64;100537.19;7685785;32;37210;-80
2024/01/23 06:02:19;;;;;;;66.82;30.08;;;;;;;1.21;61.72;100545.63;7685834;32;39334;-79
2024/01/23 06:06:42;;;;;;;75.10;30.25;;;;;;;1.22;61.56;100552.69;7685708;32;40036;-81
2024/01/23 06:10:59;;;;;;;69.45;27.98;;;;;;;1.53;60.82;100559.56;7680614;32;37965;-81
2024/01/23 06:15:15;;;;;;;59.17;27.87;;;;;;;1.72;60.26;100558.91;7689715;32;38025;-81
2024/01/23 06:19:32;;;;;;;56.40;26.73;;;;;;;1.40;61.08;100555.75;7702255;32;39404;-80
2024/01/23 06:23:48;;;;;;;76.87;28.10;;;;;;;1.43;61.11;100557.19;7711501;32;41063;-80
2024/01/23 06:28:05;;;;;;;72.93;29.33;;;;;;;1.60;60.52;100571.22;7701104;32;37962;-81
2024/01/23 06:32:21;;;;;;;65.12;28.33;;;;;;;1.02;62.13;100574.78;7685476;32;37473;-81
2024/01/23 06:36:38;;;;;;;69.37;27.40;;;;;;;1.47;60.80;100586.19;7698990;32;39378;-80
2024/01/23 06:40:54;;;;;;;67.75;29.30;;;;;;;1.61;60.19;100586.31;7712071;32;39649;-81
2024/01/23 06:45:10;;;;;;;76.40;33.85;;;;;;;1.54;60.21;100590.81;7711759;32;38633;-80
2024/01/23 06:49:27;;;;;;;74.72;31.20;;;;;;;1.73;59.57;100598.22;7711903;32;38319;-80
2024/01/23 06:53:43;;;;;;;88.78;40.30;;;;;;;1.64;59.74;100607.44;7711922;32;39004;-81
2024/01/23 06:57:59;;;;;;;79.25;33.22;;;;;;;1.57;60.08;100617.28;7711629;32;40145;-82
2024/01/23 07:02:16;;;;;;;72.45;29.90;;;;;;;1.66;59.67;100619.66;7711642;32;37833;-82
2024/01/23 07:06:32;;;;;;;61.42;26.17;;;;;;;1.47;60.18;100631.88;7711782;32;37435;-81
2024/01/23 07:10:49;;;;;;;65.85;27.23;;;;;;;1.34;60.27;100642.47;7695732;32;40197;-81
2024/01/23 07:15:09;;;;;;;71.60;30.77;;;;;;;1.29;60.68;100652.97;7685032;32;40880;-82
2024/01/23 07:19:26;;;;;;;78.25;31.33;;;;;;;1.49;60.04;100648.62;7684896;32;37998;-81
2024/01/23 07:23:43;;;;;;;72.03;30.35;;;;;;;1.50;60.07;100663.75;7684862;32;37299;-81
2024/01/23 07:27:59;;;;;;;69.62;29.10;;;;;;;1.55;60.10;100665.03;7684949;32;40191;-81
2024/01/23 07:32:15;;;;;;;65.35;25.58;;;;;;;1.43;60.50;100653.94;7689360;32;39857;-82
2024/01/23 07:36:31;;;;;;;60.17;25.27;;;;;;;1.56;60.00;100651.41;7711271;32;37946;-82
2024/01/23 07:40:48;;;;;;;50.08;24.70;;;;;;;1.33;60.62;100650.72;7711296;32;37436;-82
2024/01/23 07:45:05;;;;;;;63.47;25.73;;;;;;;1.74;60.10;100659.00;7711229;32;39030;-82
2024/01/23 07:49:21;;;;;;;56.33;25.02;;;;;;;2.03;59.66;100657.19;7711142;32;39899;-81
2024/01/23 07:53:37;;;;;;;55.40;23.85;;;;;;;2.05;59.87;100655.13;7711081;32;38721;-82
2024/01/23 07:57:54;;;;;;;60.55;24.92;;;;;;;2.18;59.44;100666.00;7710891;32;37328;-83
2024/01/23 08:02:10;;;;;;;69.32;28.38;;;;;;;2.20;59.20;100672.03;7711043;32;40267;-80
2024/01/23 08:06:26;;;;;;;63.05;27.45;;;;;;;2.03;59.90;100674.16;7710943;32;39618;-80
2024/01/23 08:10:44;;;;;;;72.62;32.33;;;;;;;2.03;60.24;100689.47;7700702;32;38842;-79
2024/01/23 08:15:00;;;;;;;88.53;35.15;;;;;;;2.21;59.86;100692.53;7710799;32;38275;-81
2024/01/23 08:19:16;;;;;;;66.87;28.10;;;;;;;2.03;60.50;100687.59;7687684;32;39842;-79
2024/01/23 08:23:32;;;;;;;55.85;26.23;;;;;;;2.27;62.20;100698.97;7693081;32;39656;-80
2024/01/23 08:27:49;;;;;;;63.05;26.98;;;;;;;2.51;60.90;100713.88;7706778;32;38051;-79
2024/01/23 08:32:05;;;;;;;56.55;25.52;;;;;;;2.00;63.27;100727.50;7709254;32;37278;-80
2024/01/23 08:36:21;;;;;;;64.90;27.42;;;;;;;1.84;62.75;100721.34;7709667;32;39308;-81
2024/01/23 08:40:39;;;;;;;58.83;27.58;;;;;;;2.24;61.70;100731.66;7709926;32;40917;-80
2024/01/23 08:44:55;;;;;;;56.05;26.40;;;;;;;1.95;62.78;100727.25;7708818;32;38775;-80
2024/01/23 08:49:12;;;;;;;57.95;27.33;;;;;;;2.17;61.54;100717.31;7710090;32;37410;-80
2024/01/23 08:53:28;;;;;;;69.25;29.95;;;;;;;1.82;63.18;100727.97;7709797;32;39927;-80
2024/01/23 08:57:45;;;;;;;73.40;30.83;;;;;;;2.05;62.31;100719.69;7697263;32;39821;-80
2024/01/23 09:02:01;;;;;;;64.87;30.37;;;;;;;2.10;62.25;100711.06;7630618;32;37954;-80
2024/01/23 09:06:17;;;;;;;70.28;30.83;;;;;;;2.35;62.58;100714.19;7630436;32;37330;-80
2024/01/23 09:10:34;;;;;;;78.28;32.15;;;;;;;2.33;61.60;100705.44;7636108;32;39427;-80
2024/01/23 09:14:50;;;;;;;79.37;34.17;;;;;;;2.72;61.07;100717.53;7656440;32;40797;-79
2024/01/23 09:19:06;;;;;;;74.43;31.83;;;;;;;2.64;61.74;100718.53;7656341;32;37687;-80
2024/01/23 09:23:23;;;;;;;72.72;29.77;;;;;;;2.83;61.17;100722.38;7655865;32;37113;-80
2024/01/23 09:27:40;;;;;;;57.08;29.05;;;;;;;2.87;61.00;100729.03;7656184;32;40039;-80
2024/01/23 09:32:06;;;;;;;65.07;29.70;;;;;;;2.65;60.43;100730.12;7656134;32;39879;-81
2024/01/23 09:36:23;;;;;;;65.00;28.58;;;;;;;3.07;59.65;100728.28;7655604;32;38237;-79
2024/01/23 09:40:48;;;;;;;65.18;28.33;;;;;;;3.01;59.78;100735.31;7655798;32;38333;-79
2024/01/23 09:45:09;;;;;;;72.55;29.65;;;;;;;3.18;59.00;100714.25;7666598;32;39111;-78
2024/01/23 09:49:26;;;;;;;73.03;30.45;;;;;;;3.28;58.92;100714.72;7659520;32;39959;-79
2024/01/23 09:53:44;;;;;;;58.25;27.58;;;;;;;4.00;58.49;100722.38;7659440;32;37904;-79
2024/01/23 09:58:00;;;;;;;54.33;27.30;;;;;;;3.79;57.98;100726.06;7662404;32;37201;-79
2024/01/23 10:02:17;;;;;;;54.05;27.98;;;;;;;3.71;58.60;100732.50;7711318;32;39981;-79
2024/01/23 10:06:33;;;;;;;53.40;26.62;;;;;;;4.26;58.33;100733.22;7711185;32;39935;-79
2024/01/23 10:11:04;;;;;;;56.92;27.20;;;;;;;4.68;57.54;100723.00;7704784;32;37624;-79
2024/01/23 10:15:22;;;;;;;47.45;24.02;;;;;;;5.40;54.92;100727.59;7691993;32;37894;-80
2024/01/23 10:19:39;;;;;;;43.70;23.83;;;;;;;4.98;53.56;100718.97;7685577;32;39438;-79
2024/01/23 10:23:56;;;;;;;53.03;24.65;;;;;;;4.95;54.24;100727.50;7697438;32;39914;-79
2024/01/23 10:28:13;;;;;;;50.50;23.52;;;;;;;5.01;54.09;100718.56;7690032;32;37998;-78
2024/01/23 10:32:32;;;;;;;50.70;23.50;;;;;;;4.73;54.29;100722.38;7685359;32;37991;-78
2024/01/23 10:36:51;;;;;;;40.88;21.48;;;;;;;5.42;54.41;100701.16;7685515;32;40000;-79
2024/01/23 10:41:07;;;;;;;40.90;22.55;;;;;;;5.64;52.81;100696.25;7683992;32;39872;-79
2024/01/23 10:45:24;;;;;;;42.88;22.00;;;;;;;6.30;51.09;100678.72;7685091;32;38810;-79
2024/01/23 10:49:44;;;;;;;46.85;24.25;;;;;;;5.82;51.33;100688.22;7685258;32;37818;-79
2024/01/23 10:54:12;;;;;;;47.40;24.05;;;;;;;6.44;51.26;100686.75;7684548;32;39256;-79
2024/01/23 10:58:33;;;;;;;44.45;22.15;;;;;;;5.60;52.49;100690.44;7684388;32;40861;-79
2024/01/23 11:02:53;;;;;;;42.00;19.90;;;;;;;6.07;52.24;100694.75;7670877;32;38762;-79
2024/01/23 11:07:27;;;;;;;38.53;20.33;;;;;;;6.10;50.63;100692.41;7685168;32;37264;-79
2024/01/23 11:12:18;;;;;;;46.42;21.67;;;;;;;5.87;52.45;100701.09;7685116;32;39319;-79
2024/01/23 11:16:34;;;;;;;51.85;23.45;;;;;;;5.52;53.03;100706.94;7672287;32;40716;-79
2024/01/23 11:21:08;;;;;;;52.75;25.65;;;;;;;5.69;53.22;100704.56;7684832;32;37998;-80
2024/01/23 11:25:25;;;;;;;49.05;22.25;;;;;;;4.83;54.44;100703.00;7684837;32;38044;-79
2024/01/23 11:29:42;;;;;;;49.15;23.40;;;;;;;5.27;53.53;100675.19;7684840;32;39331;-79
2024/01/23 11:34:21;;;;;;;44.25;21.27;;;;;;;5.67;53.49;100673.34;7684946;32;40615;-79
2024/01/23 11:38:43;;;;;;;44.92;24.83;;;;;;;5.46;53.56;100678.84;7679135;32;38055;-79
2024/01/23 11:43:07;;;;;;;55.63;25.02;;;;;;;5.09;55.38;100677.78;7683497;32;37503;-79
2024/01/23 11:47:25;;;;;;;46.75;22.85;;;;;;;5.42;55.55;100687.63;7684661;32;39498;-79
2024/01/23 11:51:42;;;;;;;47.47;24.83;;;;;;;6.56;52.78;100687.66;7683361;32;40000;-79
2024/01/23 11:55:59;;;;;;;44.22;24.52;;;;;;;6.42;52.04;100692.38;7684427;32;38009;-79
2024/01/23 12:00:16;;;;;;;45.85;23.00;;;;;;;6.71;51.04;100685.44;7684317;32;37353;-79
2024/01/23 12:04:32;;;;;;;48.38;23.55;;;;;;;6.79;50.54;100687.00;7684374;32;39275;-79
2024/01/23 12:08:49;;;;;;;50.88;23.50;;;;;;;7.01;50.11;100687.41;7683491;32;39820;-79
2024/01/23 12:13:06;;;;;;;49.75;23.52;;;;;;;7.03;50.24;100693.41;7684164;32;37924;-79
2024/01/23 12:17:23;;;;;;;46.95;24.50;;;;;;;6.72;50.84;100697.91;7684271;32;37864;-79
2024/01/23 12:21:39;;;;;;;47.33;24.08;;;;;;;6.65;51.28;100701.75;7683821;32;40285;-77
2024/01/23 12:25:55;;;;;;;52.47;24.58;;;;;;;6.48;52.37;100709.62;7683563;32;40920;-80
2024/01/23 12:30:15;;;;;;;47.60;24.48;;;;;;;6.45;53.11;100701.94;7682638;32;38772;-79
2024/01/23 12:34:33;;;;;;;49.28;24.58;;;;;;;6.70;52.51;100715.47;7683761;32;37591;-79
2024/01/23 12:38:49;;;;;;;47.97;25.25;;;;;;;6.67;52.73;100718.63;7683754;32;39348;-78
2024/01/23 12:43:07;;;;;;;52.45;26.05;;;;;;;6.82;51.86;100705.53;7683484;32;40761;-79
2024/01/23 12:47:23;;;;;;;45.80;24.23;;;;;;;6.87;51.91;100711.09;7683576;32;39018;-78
2024/01/23 12:51:39;;;;;;;50.20;25.45;;;;;;;7.06;51.58;100720.09;7683375;32;37983;-78
2024/01/23 12:55:55;;;;;;;43.47;24.33;;;;;;;6.70;51.94;100724.41;7683203;32;39483;-79
2024/01/23 13:00:15;;;;;;;49.30;25.77;;;;;;;6.47;52.50;100737.75;7682940;32;40035;-79
2024/01/23 13:04:31;;;;;;;49.60;24.73;;;;;;;6.45;52.76;100742.56;7682907;32;38053;-78
2024/01/23 13:08:48;;;;;;;43.72;24.23;;;;;;;6.39;52.80;100736.97;7682510;32;37177;-79
2024/01/23 13:13:04;;;;;;;46.65;25.77;;;;;;;6.37;52.71;100755.34;7694613;32;39258;-79
2024/01/23 13:17:29;;;;;;;47.47;24.98;;;;;;;6.48;52.41;100761.09;7695098;32;39736;-78
2024/01/23 13:21:46;;;;;;;46.35;25.45;;;;;;;6.18;53.52;100764.44;7697473;32;37953;-79
2024/01/23 13:26:03;;;;;;;48.38;25.27;;;;;;;5.88;54.30;100767.72;7697897;32;38093;-78
2024/01/23 13:30:20;;;;;;;45.90;25.75;;;;;;;5.96;54.20;100761.25;7703831;32;39038;-79
2024/01/23 13:34:38;;;;;;;48.72;25.90;;;;;;;5.83;55.02;100770.25;7712873;32;40861;-78
2024/01/23 13:38:54;;;;;;;48.80;26.23;;;;;;;5.76;55.27;100769.44;7712731;32;37934;-78
2024/01/23 13:43:11;;;;;;;52.55;27.80;;;;;;;5.86;54.87;100774.38;7713016;32;35098;-79
2024/01/23 13:47:27;;;;;;;49.75;26.60;;;;;;;5.96;54.42;100780.19;7712934;32;39388;-79
2024/01/23 13:51:45;;;;;;;47.78;26.87;;;;;;;5.84;54.73;100777.31;7712653;32;39908;-79
2024/01/23 13:56:02;;;;;;;49.30;26.60;;;;;;;5.76;55.38;100775.69;7712401;32;38021;-79
2024/01/23 14:00:21;;;;;;;60.35;28.77;;;;;;;5.71;55.06;100786.34;7712357;32;37273;-79
2024/01/23 14:04:38;;;;;;;54.50;27.52;;;;;;;5.69;55.39;100793.00;7712445;32;39458;-78
2024/01/23 14:08:54;;;;;;;55.75;28.05;;;;;;;5.56;55.55;100794.72;7712626;32;41381;-79
2024/01/23 14:13:11;;;;;;;58.17;28.77;;;;;;;5.72;55.20;100796.09;7712311;32;37635;-79
2024/01/23 14:17:28;;;;;;;52.53;26.90;;;;;;;5.61;55.77;100794.91;7712298;32;38076;-79
2024/01/23 14:21:45;;;;;;;53.42;28.40;;;;;;;5.81;55.64;100804.78;7696609;32;39107;-77
2024/01/23 14:26:02;;;;;;;54.50;28.77;;;;;;;5.89;55.49;100812.66;7709803;32;39580;-78
2024/01/23 14:30:19;;;;;;;51.97;25.08;;;;;;;6.00;55.37;100820.16;7711464;32;38656;-79
2024/01/23 14:34:35;;;;;;;49.78;26.20;;;;;;;7.55;51.72;100814.25;7697194;32;37991;-80
2024/01/23 14:38:53;;;;;;;47.83;24.98;;;;;;;7.81;49.36;100810.37;7711495;32;39471;-79
2024/01/23 14:43:10;;;;;;;47.20;26.33;;;;;;;7.44;49.74;100813.97;7711635;32;39890;-78
2024/01/23 14:47:26;;;;;;;47.55;25.98;;;;;;;7.21;50.59;100824.63;7711067;32;38458;-78
2024/01/23 14:51:43;;;;;;;48.87;25.95;;;;;;;8.70;47.07;100821.47;7711472;32;37427;-79
2024/01/23 14:56:00;;;;;;;45.70;24.55;;;;;;;9.28;44.53;100828.00;7700519;32;39435;-78
2024/01/23 15:00:17;;;;;;;46.42;24.70;;;;;;;8.22;46.76;100836.78;7679079;32;39653;-78
2024/01/23 15:04:33;;;;;;;47.75;25.42;;;;;;;7.24;49.37;100845.91;7658078;32;37870;-79
2024/01/23 15:08:50;;;;;;;46.47;24.67;;;;;;;6.79;50.51;100855.03;7658404;32;37306;-78
2024/01/23 15:13:06;;;;;;;47.83;24.60;;;;;;;6.44;52.02;100858.22;7658480;32;39879;-79
2024/01/23 15:17:23;;;;;;;50.33;24.02;;;;;;;6.01;53.19;100881.34;7657792;32;40027;-78
2024/01/23 15:21:41;;;;;;;49.67;24.17;;;;;;;5.53;54.88;100884.41;7658062;32;38798;-78
2024/01/23 15:25:57;;;;;;;45.47;25.42;;;;;;;5.36;55.47;100896.72;7685551;32;37564;-79
2024/01/23 15:30:14;;;;;;;50.53;25.27;;;;;;;5.27;56.09;100896.09;7711095;32;40227;-79
2024/01/23 15:34:30;;;;;;;52.92;25.90;;;;;;;4.74;58.09;100891.50;7710982;32;39791;-78
2024/01/23 15:38:47;;;;;;;64.37;29.08;;;;;;;4.69;58.54;100891.28;7710452;32;37910;-78
2024/01/23 15:43:05;;;;;;;51.05;25.92;;;;;;;4.12;61.12;100909.62;7710216;32;37121;-78
2024/01/23 15:47:22;;;;;;;61.13;28.38;;;;;;;4.26;61.07;100915.91;7710120;32;39515;-78
2024/01/23 15:51:39;;;;;;;64.20;28.90;;;;;;;4.35;60.78;100908.47;7710836;32;40993;-78
2024/01/23 15:55:55;;;;;;;54.60;25.85;;;;;;;3.65;62.82;100940.97;7710644;32;38745;-78
2024/01/23 16:00:12;;;;;;;55.60;29.05;;;;;;;3.98;62.67;100927.63;7725874;32;38067;-78
2024/01/23 16:04:29;;;;;;;49.50;27.05;;;;;;;3.87;63.71;100933.62;7737426;32;39835;-79
2024/01/23 16:08:45;;;;;;;53.65;27.60;;;;;;;3.89;63.37;100947.75;7736946;32;40839;-78
2024/01/23 16:13:01;;;;;;;51.45;26.20;;;;;;;3.49;65.55;100958.28;7736976;32;38687;-78
2024/01/23 16:17:18;;;;;;;56.42;27.55;;;;;;;3.87;64.69;100961.44;7737266;32;37307;-78
2024/01/23 16:21:35;;;;;;;54.35;26.27;;;;;;;3.53;66.46;100970.34;7737156;32;39457;-78
2024/01/23 16:25:52;;;;;;;51.97;25.88;;;;;;;3.70;66.44;100969.00;7728986;32;40765;-78
2024/01/23 16:30:08;;;;;;;58.33;28.10;;;;;;;4.28;63.96;100992.16;7736514;32;38069;-78
2024/01/23 16:34:25;;;;;;;52.65;28.17;;;;;;;4.04;64.49;101002.41;7737038;32;38060;-78
2024/01/23 16:38:41;;;;;;;61.22;29.12;;;;;;;3.71;64.78;101005.72;7736394;32;39377;-77
2024/01/23 16:42:57;;;;;;;61.78;28.87;;;;;;;3.68;64.76;101021.47;7736375;32;40095;-79
2024/01/23 16:47:15;;;;;;;52.10;26.83;;;;;;;3.89;64.40;101012.50;7736258;32;38808;-78
2024/01/23 16:51:34;;;;;;;68.45;32.47;;;;;;;4.20;63.13;101019.31;7709859;32;37498;-77
2024/01/23 16:55:50;;;;;;;64.10;30.17;;;;;;;3.97;63.65;101039.31;7697415;32;39062;-78
2024/01/23 17:00:07;;;;;;;60.83;30.65;;;;;;;4.11;63.12;101026.75;7698839;32;39668;-79
2024/01/23 17:04:24;;;;;;;62.15;29.10;;;;;;;3.97;63.35;101031.22;7712798;32;38079;-78
2024/01/23 17:08:40;;;;;;;56.75;29.10;;;;;;;4.19;62.39;101033.84;7712470;32;37189;-79
2024/01/23 17:12:56;;;;;;;59.90;28.33;;;;;;;4.04;63.27;101039.38;7712612;32;39843;-78
2024/01/23 17:17:13;;;;;;;65.43;31.05;;;;;;;3.91;63.70;101032.84;7713006;32;40878;-78
2024/01/23 17:21:29;;;;;;;69.90;31.08;;;;;;;3.90;63.80;101035.75;7712358;32;37938;-78
2024/01/23 17:25:46;;;;;;;68.12;33.00;;;;;;;4.33;61.90;101020.22;7704940;32;37314;-78
2024/01/23 17:30:03;;;;;;;69.28;31.65;;;;;;;4.01;63.25;101037.06;7712228;32;39149;-78
2024/01/23 17:34:20;;;;;;;61.33;30.48;;;;;;;3.89;63.04;101017.88;7712521;32;40088;-79
2024/01/23 17:38:36;;;;;;;65.78;31.62;;;;;;;3.76;63.71;101035.66;7712200;32;38701;-78
2024/01/23 17:42:53;;;;;;;63.15;31.90;;;;;;;4.08;62.68;101033.34;7712210;32;38018;-79
2024/01/23 17:47:09;;;;;;;69.10;31.70;;;;;;;4.09;62.28;101043.13;7712615;32;40145;-79
2024/01/23 17:51:26;;;;;;;64.25;29.87;;;;;;;4.00;62.49;101040.78;7711863;32;40018;-79
2024/01/23 17:55:42;;;;;;;62.60;29.60;;;;;;;4.02;63.01;101052.19;7712429;32;37948;-79
2024/01/23 17:59:58;;;;;;;59.85;29.98;;;;;;;3.86;63.82;101045.25;7711640;32;37018;-79
2024/01/23 18:04:15;;;;;;;66.35;29.35;;;;;;;3.95;63.79;101054.88;7711310;32;40788;-79
2024/01/23 18:08:31;;;;;;;54.33;27.15;;;;;;;4.03;63.77;101057.41;7695022;32;40812;-79
2024/01/23 18:12:48;;;;;;;56.35;27.15;;;;;;;4.14;63.66;101048.78;7687921;32;38709;-78
2024/01/23 18:17:08;;;;;;;51.55;25.85;;;;;;;4.26;62.80;101051.75;7696697;32;37904;-78
2024/01/23 18:21:24;;;;;;;64.00;29.70;;;;;;;4.58;61.33;101044.00;7709334;32;40247;-79
2024/01/23 18:25:41;;;;;;;66.18;28.73;;;;;;;4.37;61.10;101053.03;7703025;32;39746;-79
2024/01/23 18:29:57;;;;;;;48.15;24.92;;;;;;;4.46;60.73;101043.72;7711395;32;38709;-79
2024/01/23 18:34:13;;;;;;;56.17;26.73;;;;;;;4.26;61.04;101059.00;7696979;32;37508;-78
2024/01/23 18:38:29;;;;;;;51.80;27.37;;;;;;;4.02;61.44;101053.06;7700741;32;39485;-78
2024/01/23 18:42:46;;;;;;;57.33;26.92;;;;;;;4.11;60.86;101037.53;7710462;32;40025;-77
2024/01/23 18:47:03;;;;;;;61.58;28.65;;;;;;;3.97;61.11;101036.63;7710093;32;38721;-78
2024/01/23 18:51:19;;;;;;;49.15;25.10;;;;;;;3.85;61.89;101040.91;7685282;32;37916;-78
2024/01/23 18:55:35;;;;;;;56.28;26.25;;;;;;;3.71;63.18;101053.47;7680592;32;40138;-77
2024/01/23 18:59:52;;;;;;;61.17;29.15;;;;;;;3.77;63.00;101058.06;7697734;32;39988;-78
2024/01/23 19:04:08;;;;;;;59.83;27.95;;;;;;;3.72;63.10;101061.31;7715269;32;38593;-77
2024/01/23 19:08:25;;;;;;;59.00;25.92;;;;;;;3.80;62.92;101056.84;7684145;32;38043;-77
2024/01/23 19:12:42;;;;;;;60.05;29.15;;;;;;;3.75;63.31;101060.94;7684415;32;39396;-78
2024/01/23 19:16:58;;;;;;;62.55;29.20;;;;;;;3.87;63.17;101068.53;7683768;32;39602;-77
2024/01/23 19:21:16;;;;;;;60.03;27.95;;;;;;;3.85;63.21;101074.09;7721773;32;37880;-78
2024/01/23 19:25:32;;;;;;;58.90;28.83;;;;;;;4.02;62.61;101084.59;7721809;32;37207;-77
2024/01/23 19:29:49;;;;;;;60.60;31.23;;;;;;;3.84;62.92;101085.91;7731613;32;38990;-77
2024/01/23 19:34:06;;;;;;;68.47;30.37;;;;;;;3.68;63.52;101078.94;7710648;32;40698;-77
2024/01/23 19:38:34;;;;;;;64.05;30.12;;;;;;;3.42;64.01;101081.41;7722283;32;37721;-77
2024/01/23 19:42:51;;;;;;;63.78;29.70;;;;;;;3.79;62.88;101082.13;7699779;32;37453;-77